Time;durP1;ratioP1;P1;durP2;ratioP2;P2;SDS_P1;SDS_P2;PMS_P1;PMS_P2;Temp;Humidity;BMP_temperature;BMP_pressure;BME280_temperature;BME280_humidity;BME280_pressure;Samples;Min_cycle;Max_cycle;Signal;HPM_P1;HPM_P2
2021/06/17 00:01:34;;;;;;;2.50;1.17;;;19.60;99.90;;;;;;1983153;72;21483;-76
2021/06/17 00:04:01;;;;;;;2.75;1.30;;;19.60;99.90;;;;;;1982909;72;21507;-74
2021/06/17 00:06:31;;;;;;;7.00;1.60;;;19.60;99.90;;;;;;1982912;72;21499;-75
2021/06/17 00:08:54;;;;;;;4.72;1.90;;;19.50;99.90;;;;;;1981595;72;21049;-74
2021/06/17 00:11:21;;;;;;;1.30;1.20;;;19.50;99.90;;;;;;1982925;72;21112;-75
2021/06/17 00:13:47;;;;;;;3.35;1.25;;;19.40;99.90;;;;;;1982984;72;21052;-75
2021/06/17 00:16:16;;;;;;;3.60;1.67;;;19.40;99.90;;;;;;1982830;72;21153;-75
2021/06/17 00:18:42;;;;;;;5.40;1.52;;;19.30;99.90;;;;;;1982870;72;21025;-75
2021/06/17 00:21:08;;;;;;;2.37;1.57;;;19.30;99.90;;;;;;1982854;72;21061;-75
2021/06/17 00:23:34;;;;;;;2.42;1.32;;;19.20;99.90;;;;;;1982735;72;21068;-75
2021/06/17 00:26:02;;;;;;;5.03;1.65;;;19.10;99.90;;;;;;1982818;72;21056;-75
2021/06/17 00:28:28;;;;;;;2.52;1.37;;;19.10;99.90;;;;;;1982966;72;21057;-75
2021/06/17 00:30:54;;;;;;;2.55;1.10;;;19.10;99.90;;;;;;1958457;72;21044;-75
2021/06/17 00:33:20;;;;;;;2.77;1.22;;;19.10;99.90;;;;;;1982865;72;21284;-75
2021/06/17 00:35:48;;;;;;;3.67;1.22;;;19.10;99.90;;;;;;1958364;72;21036;-75
2021/06/17 00:38:14;;;;;;;1.57;1.47;;;19.00;99.90;;;;;;1982638;72;21037;-75
2021/06/17 00:40:40;;;;;;;1.50;1.20;;;19.00;99.90;;;;;;1982694;72;21068;-75
2021/06/17 00:43:11;;;;;;;1.57;1.22;;;18.90;99.90;;;;;;1982654;72;21064;-75
2021/06/17 00:45:34;;;;;;;5.60;1.60;;;18.90;99.90;;;;;;1981987;72;21460;-75
2021/06/17 00:48:03;;;;;;;4.53;1.37;;;18.80;99.90;;;;;;1982734;72;21594;-75
2021/06/17 00:50:28;;;;;;;2.33;1.37;;;18.80;99.90;;;;;;1982806;72;21093;-75
2021/06/17 00:52:55;;;;;;;2.95;1.47;;;18.80;99.90;;;;;;1984859;72;21057;-75
2021/06/17 00:55:21;;;;;;;2.87;1.57;;;18.70;99.90;;;;;;1982510;72;21202;-75
2021/06/17 00:57:47;;;;;;;3.47;1.77;;;18.70;99.90;;;;;;1982809;72;21014;-75
2021/06/17 01:00:13;;;;;;;2.02;1.22;;;18.70;99.90;;;;;;1988189;72;21108;-75
2021/06/17 01:02:43;;;;;;;4.90;1.60;;;18.70;99.90;;;;;;1958434;72;21117;-75
2021/06/17 01:05:11;;;;;;;3.35;1.67;;;18.60;99.90;;;;;;1982162;72;21056;-75
2021/06/17 01:07:35;;;;;;;1.40;1.30;;;18.60;99.90;;;;;;1981854;72;21097;-75
2021/06/17 01:10:04;;;;;;;3.12;1.40;;;18.50;99.90;;;;;;1982747;72;21081;-75
2021/06/17 01:12:29;;;;;;;3.72;1.75;;;18.50;99.90;;;;;;1982347;72;21068;-75
2021/06/17 01:14:55;;;;;;;2.30;1.60;;;18.50;99.90;;;;;;1982784;72;21064;-74
2021/06/17 01:17:21;;;;;;;3.83;1.62;;;18.40;99.90;;;;;;1982775;72;21197;-75
2021/06/17 01:19:47;;;;;;;3.98;1.35;;;18.40;99.90;;;;;;1982741;72;21037;-75
2021/06/17 01:22:13;;;;;;;2.67;1.35;;;18.40;99.90;;;;;;1982662;72;21509;-75
2021/06/17 01:24:39;;;;;;;1.87;1.20;;;18.40;99.90;;;;;;1982671;72;21456;-75
2021/06/17 01:27:06;;;;;;;3.72;1.80;;;18.40;99.90;;;;;;1982736;72;21061;-75
2021/06/17 01:29:32;;;;;;;2.52;1.40;;;18.30;99.90;;;;;;1982801;72;21134;-75
2021/06/17 01:32:00;;;;;;;2.27;1.50;;;18.40;99.90;;;;;;1982825;72;21033;-75
2021/06/17 01:34:26;;;;;;;1.70;1.42;;;18.30;99.90;;;;;;1982698;72;21085;-75
2021/06/17 01:36:54;;;;;;;2.05;1.60;;;18.20;99.90;;;;;;1982674;72;21064;-75
2021/06/17 01:39:21;;;;;;;9.15;1.67;;;18.20;99.90;;;;;;1982730;72;21092;-74
2021/06/17 01:41:47;;;;;;;1.52;1.22;;;18.10;99.90;;;;;;1982588;72;21138;-75
2021/06/17 01:44:13;;;;;;;1.65;1.30;;;18.10;99.90;;;;;;1982555;72;21072;-74
2021/06/17 01:46:39;;;;;;;3.75;1.50;;;18.10;99.90;;;;;;1982804;72;21041;-74
2021/06/17 01:49:08;;;;;;;2.67;1.42;;;18.10;99.90;;;;;;1982775;72;21038;-74
2021/06/17 01:51:33;;;;;;;4.97;1.50;;;18.00;99.90;;;;;;1982388;72;21068;-74
2021/06/17 01:54:02;;;;;;;2.25;1.40;;;18.00;99.90;;;;;;1982670;72;21500;-74
2021/06/17 01:56:31;;;;;;;2.75;1.50;;;18.00;99.90;;;;;;1982687;72;21072;-75
2021/06/17 01:58:57;;;;;;;3.05;1.35;;;18.00;99.90;;;;;;1982705;72;21037;-75
2021/06/17 02:01:25;;;;;;;7.65;1.95;;;17.90;99.90;;;;;;1982678;72;21483;-74
2021/06/17 02:03:54;;;;;;;2.55;1.40;;;18.00;99.90;;;;;;1982592;72;21210;-75
2021/06/17 02:06:25;;;;;;;3.08;1.47;;;17.90;99.90;;;;;;1982425;72;21056;-74
2021/06/17 02:08:47;;;;;;;3.35;1.75;;;17.90;99.90;;;;;;1981664;72;21146;-74
2021/06/17 02:11:13;;;;;;;1.42;1.20;;;17.90;99.90;;;;;;1982608;72;21069;-74
2021/06/17 02:13:40;;;;;;;4.30;2.00;;;17.90;99.90;;;;;;1982696;72;21033;-74
2021/06/17 02:16:09;;;;;;;6.45;1.70;;;17.90;99.90;;;;;;1982715;72;21065;-74
2021/06/17 02:18:35;;;;;;;2.80;1.70;;;17.80;99.90;;;;;;1982775;72;21056;-74
2021/06/17 02:21:05;;;;;;;2.98;1.42;;;17.80;99.90;;;;;;1982747;72;21115;-75
2021/06/17 02:23:31;;;;;;;2.70;1.72;;;17.80;99.90;;;;;;1981970;72;21457;-75
2021/06/17 02:25:57;;;;;;;3.47;1.75;;;17.80;99.90;;;;;;1982470;72;21146;-74
2021/06/17 02:28:23;;;;;;;2.50;1.60;;;17.70;99.90;;;;;;1982787;72;21149;-74
2021/06/17 02:30:49;;;;;;;5.95;1.90;;;17.70;99.90;;;;;;1982960;72;21056;-74
2021/06/17 02:33:15;;;;;;;6.90;2.80;;;17.60;99.90;;;;;;1982824;72;21079;-74
2021/06/17 02:35:42;;;;;;;3.50;1.90;;;17.60;99.90;;;;;;1982754;72;21196;-74
2021/06/17 02:38:11;;;;;;;2.50;1.80;;;17.60;99.90;;;;;;1982640;72;21078;-74
2021/06/17 02:40:36;;;;;;;3.50;1.72;;;17.50;99.90;;;;;;1982800;72;21157;-74
2021/06/17 02:43:03;;;;;;;3.95;1.75;;;17.50;99.90;;;;;;1983155;72;21065;-74
2021/06/17 02:45:34;;;;;;;6.72;1.52;;;17.50;99.90;;;;;;1983204;72;21138;-74
2021/06/17 02:48:01;;;;;;;2.50;1.90;;;17.50;99.90;;;;;;1982958;72;21524;-75
2021/06/17 02:50:29;;;;;;;3.72;1.32;;;17.50;99.90;;;;;;1982741;72;21060;-75
2021/06/17 02:52:57;;;;;;;2.62;1.70;;;17.50;99.90;;;;;;1982712;72;21150;-75
2021/06/17 02:55:27;;;;;;;1.70;1.60;;;17.40;99.90;;;;;;1982489;72;21057;-75
2021/06/17 02:57:50;;;;;;;4.58;1.70;;;17.40;99.90;;;;;;1983572;72;21155;-75
2021/06/17 03:00:16;;;;;;;10.40;1.45;;;17.30;99.90;;;;;;1983258;72;21101;-75
2021/06/17 03:02:46;;;;;;;2.58;1.90;;;17.30;99.90;;;;;;1983027;72;21569;-75
2021/06/17 03:05:16;;;;;;;3.85;1.87;;;17.30;99.90;;;;;;1983043;72;21487;-74
2021/06/17 03:07:39;;;;;;;4.55;1.75;;;17.30;99.90;;;;;;1982180;72;21068;-75
2021/06/17 03:10:08;;;;;;;4.95;1.40;;;17.30;99.90;;;;;;1983064;72;21129;-74
2021/06/17 03:12:33;;;;;;;2.22;1.80;;;17.20;99.90;;;;;;1982681;72;21048;-74
2021/06/17 03:14:59;;;;;;;6.10;1.82;;;17.20;99.90;;;;;;1982716;72;21044;-74
2021/06/17 03:17:26;;;;;;;3.35;2.00;;;17.20;99.90;;;;;;1982819;72;21057;-74
2021/06/17 03:19:52;;;;;;;2.72;1.70;;;17.20;99.90;;;;;;1982765;72;21065;-74
2021/06/17 03:22:18;;;;;;;2.77;1.80;;;17.20;99.90;;;;;;1982858;72;21129;-74
2021/06/17 03:24:50;;;;;;;3.17;1.70;;;17.20;99.90;;;;;;1982829;72;21052;-73
2021/06/17 03:27:16;;;;;;;4.28;1.72;;;17.20;99.90;;;;;;1982615;72;21048;-74
2021/06/17 03:29:45;;;;;;;1.90;1.75;;;17.20;99.90;;;;;;1983038;72;21052;-73
2021/06/17 03:32:11;;;;;;;7.58;1.80;;;17.20;99.90;;;;;;1982989;72;21080;-74
2021/06/17 03:34:37;;;;;;;7.78;1.92;;;17.20;99.90;;;;;;1982859;72;21140;-74
2021/06/17 03:37:03;;;;;;;6.72;2.40;;;17.10;99.90;;;;;;1982668;72;21484;-75
2021/06/17 03:39:29;;;;;;;6.37;1.90;;;17.10;99.90;;;;;;1982664;72;21465;-74
2021/06/17 03:41:56;;;;;;;2.40;1.90;;;17.20;99.90;;;;;;1982853;72;21433;-74
2021/06/17 03:44:25;;;;;;;4.75;1.70;;;17.20;99.90;;;;;;1982856;72;21121;-74
2021/06/17 03:46:50;;;;;;;5.22;2.00;;;17.20;99.90;;;;;;1982325;72;21052;-74
2021/06/17 03:49:16;;;;;;;5.85;2.00;;;17.20;99.90;;;;;;1982796;72;21052;-74
2021/06/17 03:51:45;;;;;;;4.08;1.77;;;17.20;99.90;;;;;;1982747;72;21030;-75
2021/06/17 03:54:23;;;;;;;1.67;1.57;;;17.20;99.90;;;;;;1982679;72;21077;-75
2021/06/17 03:56:43;;;;;;;;;;;17.20;99.90;;;;;;1984039;72;21097;-74
2021/06/17 03:59:09;;;;;;;2.05;1.85;;;17.30;99.90;;;;;;1982735;72;20144;-74
2021/06/17 04:01:35;;;;;;;5.83;2.00;;;17.30;99.90;;;;;;1982636;72;21056;-75
2021/06/17 04:04:01;;;;;;;2.30;1.50;;;17.30;99.90;;;;;;1982756;72;21103;-75
2021/06/17 04:06:32;;;;;;;1.95;1.52;;;17.20;99.90;;;;;;1982818;72;21057;-75
2021/06/17 04:08:55;;;;;;;3.50;1.60;;;17.20;99.90;;;;;;1982182;72;21441;-75
2021/06/17 04:11:21;;;;;;;3.52;1.82;;;17.30;99.90;;;;;;1982783;72;21525;-75
2021/06/17 04:13:53;;;;;;;2.52;1.62;;;17.30;99.90;;;;;;1982748;72;21121;-75
2021/06/17 04:16:15;;;;;;;4.05;1.90;;;17.30;99.90;;;;;;1981719;72;21538;-75
2021/06/17 04:18:42;;;;;;;4.20;2.15;;;17.30;99.90;;;;;;1982835;72;21589;-75
2021/06/17 04:21:09;;;;;;;2.05;1.65;;;17.30;99.90;;;;;;1982643;72;21142;-75
2021/06/17 04:23:40;;;;;;;4.62;1.92;;;17.30;99.90;;;;;;1982852;72;21030;-75
2021/06/17 04:26:03;;;;;;;2.17;1.90;;;17.30;99.90;;;;;;1982148;72;21053;-74
2021/06/17 04:28:29;;;;;;;2.22;1.67;;;17.30;99.90;;;;;;1982742;72;21138;-75
2021/06/17 04:30:58;;;;;;;3.50;1.90;;;17.40;99.90;;;;;;1982899;72;21056;-75
2021/06/17 04:33:26;;;;;;;1.95;1.50;;;17.40;99.90;;;;;;1982614;72;21053;-75
2021/06/17 04:35:52;;;;;;;2.40;1.70;;;17.50;99.90;;;;;;1982867;72;21033;-75
2021/06/17 04:38:18;;;;;;;4.47;2.37;;;17.60;99.90;;;;;;1982641;72;21056;-75
2021/06/17 04:40:45;;;;;;;2.00;1.70;;;17.60;99.90;;;;;;1982789;72;21064;-75
2021/06/17 04:43:11;;;;;;;2.25;1.85;;;17.70;99.90;;;;;;1982618;72;21624;-75
2021/06/17 04:45:37;;;;;;;4.53;2.20;;;17.70;99.90;;;;;;1982610;72;21398;-75
2021/06/17 04:48:08;;;;;;;4.45;2.10;;;17.70;99.90;;;;;;1982529;72;21554;-75
2021/06/17 04:50:31;;;;;;;4.65;2.22;;;17.80;99.90;;;;;;1981988;72;21119;-76
2021/06/17 04:52:57;;;;;;;3.72;1.65;;;17.80;99.90;;;;;;1982517;72;21056;-75
2021/06/17 04:55:23;;;;;;;1.95;1.70;;;17.70;99.90;;;;;;1982686;72;21017;-75
2021/06/17 04:57:50;;;;;;;6.60;1.80;;;17.70;99.90;;;;;;1982456;72;21545;-76
2021/06/17 05:00:16;;;;;;;3.58;1.90;;;17.80;99.90;;;;;;1983005;72;21476;-75
2021/06/17 05:02:42;;;;;;;3.20;2.20;;;17.80;99.90;;;;;;1982581;72;21569;-76
2021/06/17 05:05:08;;;;;;;3.05;2.08;;;17.90;99.90;;;;;;1982743;72;21452;-77
2021/06/17 05:12:46;;;;;;;4.70;2.37;;;18.00;99.90;;;;;;1982528;72;21102;-76
2021/06/17 05:15:12;;;;;;;4.25;2.15;;;18.10;99.90;;;;;;1982547;72;21065;-76
2021/06/17 05:17:38;;;;;;;4.47;2.02;;;18.20;99.90;;;;;;1973930;72;21065;-78
2021/06/17 05:20:05;;;;;;;4.10;1.55;;;18.40;99.90;;;;;;1985743;72;21130;-76
2021/06/17 05:22:31;;;;;;;2.85;1.92;;;18.60;99.90;;;;;;1983824;72;21163;-76
2021/06/17 05:24:57;;;;;;;3.20;1.75;;;19.10;99.90;;;;;;1985192;72;21149;-73
2021/06/17 05:27:23;;;;;;;6.25;2.20;;;19.80;99.90;;;;;;1984127;72;21029;-74
2021/06/17 05:29:49;;;;;;;11.38;2.30;;;20.50;99.90;;;;;;1978933;72;21146;-74
2021/06/17 05:32:15;;;;;;;4.60;2.20;;;21.40;99.90;;;;;;1982708;72;21060;-74
2021/06/17 05:34:41;;;;;;;3.52;1.80;;;22.90;99.90;;;;;;1982583;72;21077;-74
2021/06/17 05:37:07;;;;;;;4.58;2.35;;;23.80;99.90;;;;;;1982518;72;21049;-74
2021/06/17 05:39:34;;;;;;;5.87;2.17;;;23.80;99.90;;;;;;1982720;72;21125;-77
2021/06/17 05:42:00;;;;;;;2.98;1.95;;;24.20;99.90;;;;;;1982514;72;21614;-75
2021/06/17 05:44:26;;;;;;;3.60;2.20;;;24.80;99.90;;;;;;1982734;72;21418;-74
2021/06/17 05:46:52;;;;;;;9.88;2.20;;;25.20;99.90;;;;;;1982553;72;21581;-75
2021/06/17 05:49:23;;;;;;;4.67;1.60;;;24.80;99.90;;;;;;1982502;72;21440;-76
2021/06/17 05:51:46;;;;;;;5.37;2.30;;;25.00;99.90;;;;;;1982204;72;21068;-75
2021/06/17 05:54:12;;;;;;;5.35;1.92;;;25.50;99.90;;;;;;1982537;72;21060;-79
2021/06/17 05:56:39;;;;;;;3.08;1.72;;;26.20;99.90;;;;;;1982834;72;21029;-78
2021/06/17 05:59:05;;;;;;;4.80;1.80;;;25.70;99.90;;;;;;1982635;72;21134;-78
2021/06/17 06:01:31;;;;;;;4.12;2.22;;;26.10;99.90;;;;;;1982670;72;21185;-79
2021/06/17 06:03:57;;;;;;;5.83;2.30;;;25.90;99.90;;;;;;1982598;72;21061;-78
2021/06/17 06:06:23;;;;;;;2.37;1.80;;;25.90;99.90;;;;;;1982704;72;21064;-79
2021/06/17 06:08:49;;;;;;;3.37;2.00;;;25.40;99.90;;;;;;1982516;72;21056;-79
2021/06/17 06:11:15;;;;;;;2.15;1.95;;;26.80;99.90;;;;;;1982723;72;21056;-79
2021/06/17 06:13:42;;;;;;;6.72;2.40;;;27.20;99.90;;;;;;1958148;72;21084;-83
2021/06/17 06:16:09;;;;;;;7.70;2.27;;;26.80;99.90;;;;;;1982583;72;21037;-82
2021/06/17 06:18:35;;;;;;;6.17;2.35;;;26.50;99.90;;;;;;1982707;72;21037;-82
2021/06/17 06:21:01;;;;;;;7.78;2.90;;;26.30;99.90;;;;;;1982601;72;21111;-81
2021/06/17 06:23:27;;;;;;;6.15;2.55;;;25.70;99.90;;;;;;1982797;72;21056;-82
2021/06/17 06:25:53;;;;;;;10.85;1.98;;;25.80;99.90;;;;;;1983135;72;21060;-81
2021/06/17 06:28:19;;;;;;;4.80;2.10;;;25.80;99.90;;;;;;1982882;72;21031;-83
2021/06/17 06:30:48;;;;;;;2.45;1.60;;;26.10;99.90;;;;;;1982832;72;21065;-83
2021/06/17 06:33:13;;;;;;;4.50;1.82;;;27.20;99.90;;;;;;1982534;72;21073;-82
2021/06/17 06:35:40;;;;;;;2.35;1.67;;;28.40;99.90;;;;;;1982709;72;21061;-78
2021/06/17 06:38:06;;;;;;;5.15;2.20;;;28.80;99.90;;;;;;1985880;72;21135;-77
2021/06/17 06:40:33;;;;;;;4.78;1.90;;;28.70;99.90;;;;;;1985374;72;21417;-79
2021/06/17 06:42:59;;;;;;;3.40;1.80;;;28.00;99.90;;;;;;1982713;72;21030;-78
2021/06/17 06:45:25;;;;;;;7.70;2.00;;;27.60;99.90;;;;;;1982650;72;21056;-78
2021/06/17 06:47:51;;;;;;;3.27;2.05;;;27.30;99.90;;;;;;1982679;72;21099;-77
2021/06/17 06:50:18;;;;;;;6.95;1.60;;;27.00;99.90;;;;;;1982928;72;21149;-79
2021/06/17 06:52:44;;;;;;;2.33;1.47;;;27.20;99.90;;;;;;1982826;72;21130;-79
2021/06/17 06:55:11;;;;;;;5.17;1.42;;;27.10;99.90;;;;;;1982817;72;21069;-77
2021/06/17 06:57:37;;;;;;;9.33;1.87;;;27.70;99.90;;;;;;1982931;72;21040;-78
2021/06/17 07:00:04;;;;;;;4.40;1.87;;;27.90;99.90;;;;;;1982546;72;21495;-78
2021/06/17 07:02:30;;;;;;;3.12;1.72;;;28.80;99.90;;;;;;1982559;72;21530;-78
2021/06/17 07:04:56;;;;;;;3.20;1.72;;;28.50;99.90;;;;;;1982647;72;21444;-78
2021/06/17 07:07:22;;;;;;;2.55;1.60;;;28.60;99.90;;;;;;1982555;72;21443;-78
2021/06/17 07:09:48;;;;;;;9.75;1.57;;;29.30;99.90;;;;;;1982763;72;21468;-78
2021/06/17 07:12:14;;;;;;;3.02;1.55;;;28.60;99.90;;;;;;1982843;72;21060;-78
2021/06/17 07:14:40;;;;;;;1.95;1.30;;;29.10;99.90;;;;;;1983081;72;21437;-78
2021/06/17 07:17:06;;;;;;;4.15;1.50;;;29.80;99.90;;;;;;1982990;72;21487;-79
2021/06/17 07:22:17;;;;;;;2.52;1.55;;;30.00;99.90;;;;;;1983109;72;21444;-79
2021/06/17 07:24:44;;;;;;;3.72;1.60;;;29.70;99.90;;;;;;1983131;72;21060;-79
2021/06/17 07:27:10;;;;;;;5.65;1.57;;;30.30;99.90;;;;;;1983069;72;21068;-80
2021/06/17 07:29:36;;;;;;;6.70;1.50;;;30.00;99.90;;;;;;1983206;72;21029;-78
2021/06/17 07:32:04;;;;;;;4.05;1.47;;;31.00;99.90;;;;;;1983312;72;21103;-79
2021/06/17 07:34:31;;;;;;;5.35;1.50;;;29.60;99.90;;;;;;1983138;72;21060;-78
2021/06/17 07:36:57;;;;;;;8.78;1.60;;;29.20;99.90;;;;;;1984733;72;21072;-78
2021/06/17 07:39:24;;;;;;;12.07;1.70;;;29.90;99.90;;;;;;1983085;72;21440;-79
2021/06/17 07:41:50;;;;;;;4.72;1.50;;;30.10;99.90;;;;;;1983135;72;21413;-79
2021/06/17 07:44:16;;;;;;;3.77;1.47;;;30.40;99.90;;;;;;1983030;72;20997;-78
2021/06/17 07:46:42;;;;;;;3.70;1.40;;;30.50;99.90;;;;;;1983283;72;21177;-77
2021/06/17 07:49:08;;;;;;;2.35;1.70;;;30.50;99.90;;;;;;1983045;72;21057;-77
2021/06/17 07:51:36;;;;;;;4.12;1.45;;;30.20;99.90;;;;;;1984255;72;21026;-78
2021/06/17 07:54:02;;;;;;;6.12;1.60;;;30.10;99.90;;;;;;1983381;72;21124;-78
2021/06/17 07:56:28;;;;;;;8.65;1.20;;;30.20;99.90;;;;;;1983540;72;21046;-79
2021/06/17 07:58:54;;;;;;;3.10;1.55;;;30.20;99.90;;;;;;1968695;72;21053;-78
2021/06/17 08:01:21;;;;;;;3.35;1.30;;;29.90;99.90;;;;;;1988505;72;21145;-78
2021/06/17 08:03:47;;;;;;;2.05;1.00;;;30.70;99.90;;;;;;1988170;72;21022;-78
2021/06/17 08:06:13;;;;;;;2.52;1.30;;;31.20;99.90;;;;;;1980705;72;21068;-78
2021/06/17 08:08:39;;;;;;;2.25;1.40;;;31.30;99.10;;;;;;1983903;72;21113;-78
2021/06/17 08:11:05;;;;;;;4.70;1.30;;;31.40;99.10;;;;;;1984091;72;21044;-78
2021/06/17 08:13:31;;;;;;;6.90;1.65;;;31.40;99.30;;;;;;1983620;72;21425;-80
2021/06/17 08:15:57;;;;;;;6.12;1.50;;;30.60;99.60;;;;;;1983722;72;21517;-79
2021/06/17 08:18:23;;;;;;;4.40;1.45;;;30.20;99.90;;;;;;1983563;72;21472;-80
2021/06/17 08:20:50;;;;;;;1.32;1.20;;;30.50;99.90;;;;;;1983580;72;21573;-79
2021/06/17 08:23:19;;;;;;;3.95;1.70;;;30.00;99.90;;;;;;1983515;72;21064;-78
2021/06/17 08:25:44;;;;;;;5.08;1.72;;;30.10;99.80;;;;;;1983306;72;21073;-78
2021/06/17 08:28:10;;;;;;;3.50;1.35;;;30.20;99.40;;;;;;1983238;72;21052;-78
2021/06/17 08:30:36;;;;;;;3.47;1.50;;;30.50;98.70;;;;;;1982830;72;21186;-78
2021/06/17 08:33:02;;;;;;;5.03;1.70;;;30.10;99.50;;;;;;1983140;72;21096;-78
2021/06/17 08:35:28;;;;;;;3.40;1.20;;;30.60;99.20;;;;;;1982915;72;21130;-78
2021/06/17 08:37:55;;;;;;;2.52;1.60;;;29.90;99.50;;;;;;1982897;72;21052;-78
2021/06/17 08:40:21;;;;;;;2.80;1.72;;;29.90;99.00;;;;;;1982778;72;21504;-78
2021/06/17 08:42:47;;;;;;;1.62;1.32;;;30.30;99.60;;;;;;1993748;71;21439;-78
2021/06/17 08:45:13;;;;;;;3.58;1.40;;;30.60;98.90;;;;;;2012874;71;21575;-79
2021/06/17 08:47:39;;;;;;;3.47;1.50;;;31.00;98.50;;;;;;2012760;71;21101;-78
2021/06/17 08:50:05;;;;;;;2.52;1.60;;;30.60;96.90;;;;;;2013266;71;21043;-78
2021/06/17 08:52:31;;;;;;;16.20;2.40;;;30.40;96.40;;;;;;2013811;71;21070;-78
2021/06/17 08:54:58;;;;;;;5.33;1.62;;;30.40;96.90;;;;;;2013631;71;21110;-78
2021/06/17 08:57:24;;;;;;;3.80;1.22;;;30.30;97.50;;;;;;1991349;71;21106;-78
2021/06/17 08:59:50;;;;;;;2.55;1.40;;;30.20;97.40;;;;;;2013320;71;21017;-78
2021/06/17 09:02:16;;;;;;;7.58;1.60;;;30.20;96.70;;;;;;2014543;71;21028;-79
2021/06/17 09:04:42;;;;;;;3.42;1.32;;;30.40;97.70;;;;;;2013701;71;21509;-79
2021/06/17 09:07:09;;;;;;;5.47;1.80;;;30.70;97.20;;;;;;2013617;71;21032;-79
2021/06/17 09:09:35;;;;;;;3.20;1.40;;;30.70;96.80;;;;;;2013831;71;21044;-79
2021/06/17 09:12:01;;;;;;;2.67;1.52;;;30.90;96.20;;;;;;2013237;71;21019;-79
2021/06/17 09:14:29;;;;;;;3.70;1.30;;;30.40;96.60;;;;;;2014104;71;21072;-86
2021/06/17 09:16:55;;;;;;;2.15;1.30;;;30.80;96.60;;;;;;2015196;71;21084;-80
2021/06/17 09:19:21;;;;;;;3.30;1.67;;;31.30;96.30;;;;;;2013782;71;21015;-72
2021/06/17 09:21:47;;;;;;;3.75;1.70;;;31.40;95.60;;;;;;2013801;71;21051;-80
2021/06/17 09:24:13;;;;;;;5.37;1.50;;;31.50;95.20;;;;;;2014068;71;21129;-79
2021/06/17 09:26:41;;;;;;;5.08;1.65;;;31.80;95.30;;;;;;2015054;71;21141;-79
2021/06/17 09:29:07;;;;;;;6.15;1.70;;;32.60;94.30;;;;;;2013375;71;21118;-79
2021/06/17 09:31:35;;;;;;;4.28;1.65;;;33.10;94.30;;;;;;1966786;72;21146;-80
2021/06/17 09:34:02;;;;;;;3.37;1.70;;;32.40;93.50;;;;;;1983344;72;21083;-79
2021/06/17 09:36:32;;;;;;;3.92;1.42;;;32.60;92.70;;;;;;1983207;72;21050;-78
2021/06/17 09:38:55;;;;;;;3.20;1.50;;;32.80;92.20;;;;;;1991444;71;21091;-78
2021/06/17 09:41:22;;;;;;;2.55;1.30;;;33.30;89.80;;;;;;1984272;72;21048;-80
2021/06/17 09:43:48;;;;;;;5.33;1.47;;;33.60;84.70;;;;;;1984527;72;21096;-80
2021/06/17 09:46:15;;;;;;;8.15;1.37;;;33.20;87.00;;;;;;1984997;72;21055;-78
2021/06/17 09:48:42;;;;;;;6.37;1.30;;;32.80;87.70;;;;;;1984199;72;21529;-78
2021/06/17 09:51:08;;;;;;;5.70;1.42;;;32.00;90.00;;;;;;1986632;71;21048;-79
2021/06/17 09:53:34;;;;;;;3.60;1.50;;;32.50;89.20;;;;;;1984887;72;21100;-80
2021/06/17 09:56:00;;;;;;;4.05;1.45;;;33.00;86.10;;;;;;1984397;72;21136;-79
2021/06/17 09:58:26;;;;;;;2.47;1.40;;;32.80;86.20;;;;;;1984287;72;21063;-79
2021/06/17 10:00:52;;;;;;;1.95;1.25;;;33.00;85.40;;;;;;1984716;72;21083;-78
2021/06/17 10:03:19;;;;;;;7.05;1.30;;;33.40;84.80;;;;;;1984041;72;21231;-78
2021/06/17 10:05:45;;;;;;;4.97;1.27;;;33.00;84.50;;;;;;1984629;72;21527;-78
2021/06/17 10:08:12;;;;;;;4.08;1.30;;;33.20;78.50;;;;;;1987604;71;21079;-78
2021/06/17 10:10:39;;;;;;;4.25;1.40;;;33.40;78.10;;;;;;1988253;71;21042;-79
2021/06/17 10:13:05;;;;;;;1.27;0.90;;;33.30;77.70;;;;;;1983690;72;21084;-78
2021/06/17 10:15:31;;;;;;;2.45;0.90;;;33.00;75.20;;;;;;1984902;72;21463;-79
2021/06/17 10:17:57;;;;;;;3.15;0.80;;;33.60;68.80;;;;;;1985155;72;21475;-80
2021/06/17 10:20:23;;;;;;;2.10;0.90;;;34.00;68.00;;;;;;1985295;72;21591;-78
2021/06/17 10:22:49;;;;;;;2.65;1.25;;;34.30;64.30;;;;;;1984462;72;21024;-77
2021/06/17 10:25:15;;;;;;;1.07;0.85;;;34.90;65.00;;;;;;1984982;72;21097;-77
2021/06/17 10:27:42;;;;;;;0.68;0.68;;;34.80;62.50;;;;;;1984446;72;21060;-78
2021/06/17 10:30:08;;;;;;;1.62;0.98;;;34.50;61.50;;;;;;1984693;72;21019;-78
2021/06/17 10:32:34;;;;;;;1.87;1.00;;;34.60;61.90;;;;;;1984192;72;21123;-80
2021/06/17 10:35:02;;;;;;;2.25;1.17;;;34.80;62.50;;;;;;1984050;72;21062;-77
2021/06/17 10:37:30;;;;;;;2.17;1.40;;;35.20;64.00;;;;;;1984065;72;21087;-77
2021/06/17 10:39:58;;;;;;;5.40;1.42;;;35.20;65.30;;;;;;1985369;72;21091;-77
2021/06/17 10:42:23;;;;;;;1.65;1.55;;;34.80;66.10;;;;;;1985235;70;21087;-76
2021/06/17 10:44:50;;;;;;;5.50;1.32;;;34.10;68.70;;;;;;1986134;71;21059;-83
2021/06/17 10:47:17;;;;;;;2.33;1.55;;;34.20;70.80;;;;;;1984977;72;21510;-83
2021/06/17 10:49:43;;;;;;;4.05;1.60;;;34.10;69.30;;;;;;1984363;72;21126;-86
2021/06/17 10:52:10;;;;;;;3.12;1.50;;;34.40;69.60;;;;;;1984004;72;21568;-87
2021/06/17 10:54:36;;;;;;;6.05;1.70;;;34.50;68.20;;;;;;1984477;72;21056;-86
2021/06/17 10:57:04;;;;;;;1.35;1.07;;;34.00;67.80;;;;;;1984077;72;21133;-84
2021/06/17 10:59:30;;;;;;;1.65;1.10;;;33.60;66.50;;;;;;1984271;72;21056;-79
2021/06/17 11:01:56;;;;;;;1.55;1.35;;;33.80;64.10;;;;;;1984278;72;21054;-79
2021/06/17 11:04:22;;;;;;;1.40;1.07;;;33.50;65.50;;;;;;1984587;72;21083;-82
2021/06/17 11:06:52;;;;;;;11.28;2.17;;;33.60;68.00;;;;;;1984398;72;21051;-79
2021/06/17 11:09:18;;;;;;;2.55;1.20;;;34.00;68.00;;;;;;1985023;72;21076;-78
2021/06/17 11:11:44;;;;;;;3.98;1.37;;;34.10;67.30;;;;;;1984039;72;21122;-78
2021/06/17 11:14:10;;;;;;;1.65;1.27;;;33.70;67.40;;;;;;1984146;72;21083;-78
2021/06/17 11:16:36;;;;;;;10.13;1.47;;;33.70;68.20;;;;;;1984261;72;21064;-80
2021/06/17 11:19:09;;;;;;;1.37;1.12;;;33.20;67.70;;;;;;1984073;72;21166;-79
2021/06/17 11:21:33;;;;;;;2.50;1.55;;;33.50;67.30;;;;;;1983488;72;21088;-79
2021/06/17 11:24:00;;;;;;;6.85;1.10;;;33.90;67.20;;;;;;1984522;72;21040;-79
2021/06/17 11:26:26;;;;;;;2.05;1.60;;;34.40;67.30;;;;;;1984117;72;21514;-79
2021/06/17 11:28:53;;;;;;;4.20;1.77;;;34.50;67.70;;;;;;1983668;72;21506;-80
2021/06/17 11:31:19;;;;;;;2.12;1.25;;;34.60;66.60;;;;;;1983271;72;21112;-82
2021/06/17 11:33:45;;;;;;;5.47;1.62;;;33.90;68.20;;;;;;1983530;72;21092;-79
2021/06/17 11:36:12;;;;;;;2.77;1.50;;;34.30;69.60;;;;;;1983454;72;21209;-79
2021/06/17 11:38:38;;;;;;;6.58;1.50;;;34.60;66.90;;;;;;1983481;72;21555;-78
2021/06/17 11:41:04;;;;;;;6.35;1.40;;;34.70;68.20;;;;;;1983344;72;21574;-79
2021/06/17 11:43:30;;;;;;;2.30;1.37;;;34.80;66.80;;;;;;1983438;72;21520;-81
2021/06/17 11:45:56;;;;;;;2.10;1.35;;;34.70;65.90;;;;;;1983302;72;21524;-80
2021/06/17 11:48:22;;;;;;;6.47;1.65;;;34.10;66.70;;;;;;1983489;72;21565;-80
2021/06/17 11:50:48;;;;;;;5.87;1.50;;;34.60;64.80;;;;;;1983554;72;21487;-80
2021/06/17 11:53:14;;;;;;;3.25;1.55;;;35.00;64.40;;;;;;1983550;72;21639;-80
2021/06/17 11:55:41;;;;;;;1.95;1.30;;;34.40;65.70;;;;;;1983289;72;21474;-80
2021/06/17 11:58:07;;;;;;;5.72;1.40;;;34.60;65.40;;;;;;1983450;72;21091;-80
2021/06/17 12:00:34;;;;;;;4.08;1.50;;;34.60;65.20;;;;;;1982237;72;21090;-81
2021/06/17 12:03:02;;;;;;;4.30;1.40;;;34.50;65.70;;;;;;1983535;72;21024;-79
2021/06/17 12:05:28;;;;;;;1.85;1.40;;;34.40;66.30;;;;;;1984036;72;21138;-79
2021/06/17 12:07:59;;;;;;;2.90;1.55;;;34.70;64.90;;;;;;1984096;72;21078;-80
2021/06/17 12:10:22;;;;;;;5.55;1.20;;;34.50;63.80;;;;;;1983101;72;21075;-80
2021/06/17 12:12:48;;;;;;;4.40;1.37;;;34.80;66.10;;;;;;1984154;72;21047;-80
2021/06/17 12:15:14;;;;;;;5.67;1.32;;;35.00;64.20;;;;;;1982271;72;21135;-78
2021/06/17 12:17:41;;;;;;;5.78;1.27;;;34.70;62.30;;;;;;1984049;72;21066;-81
2021/06/17 12:20:07;;;;;;;6.83;1.45;;;34.80;64.50;;;;;;1984338;72;21023;-80
2021/06/17 12:22:33;;;;;;;3.67;1.62;;;35.40;61.60;;;;;;1984724;72;21026;-81
2021/06/17 12:24:59;;;;;;;2.55;1.42;;;35.20;62.80;;;;;;1946426;72;21050;-81
2021/06/17 12:27:25;;;;;;;6.03;1.75;;;35.50;63.20;;;;;;1982343;71;21087;-80
2021/06/17 12:29:52;;;;;;;11.70;1.45;;;35.70;61.90;;;;;;1984065;72;21432;-78
2021/06/17 12:32:20;;;;;;;1.25;1.10;;;35.40;60.60;;;;;;1981895;71;21092;-78
2021/06/17 12:34:46;;;;;;;10.13;1.37;;;35.80;61.30;;;;;;1983678;72;21084;-80
2021/06/17 12:37:13;;;;;;;5.33;1.42;;;36.70;59.90;;;;;;1984216;72;21099;-82
2021/06/17 12:39:39;;;;;;;2.67;1.30;;;37.00;59.50;;;;;;1984362;72;21153;-77
2021/06/17 12:42:05;;;;;;;4.25;1.57;;;36.60;59.30;;;;;;1984233;72;21070;-82
2021/06/17 12:44:32;;;;;;;1.98;1.57;;;36.80;58.00;;;;;;1984592;72;21075;-78
2021/06/17 12:47:03;;;;;;;7.42;1.55;;;37.00;57.60;;;;;;1984583;72;21067;-79
2021/06/17 12:52:02;;;;;;;2.37;1.30;;;37.30;56.80;;;;;;1981968;72;21084;-79
2021/06/17 12:52:07;;;;;;;2.42;1.15;;;37.70;56.30;;;;;;1979070;72;21088;-85